Time;durP1;ratioP1;P1;durP2;ratioP2;P2;SDS_P1;SDS_P2;PMS_P1;PMS_P2;Temp;Humidity;BMP_temperature;BMP_pressure;BME280_temperature;BME280_humidity;BME280_pressure;Samples;Min_cycle;Max_cycle;Signal;HPM_P1;HPM_P2
2021/04/27 00:00:40;;;;;;;12.73;7.85;;;;;;;6.02;59.60;99524.84;4303559;33;33380;-95
2021/04/27 00:03:17;;;;;;;11.02;7.90;;;;;;;6.06;58.94;99525.34;4303537;33;33703;-95
2021/04/27 00:05:49;;;;;;;12.23;7.62;;;;;;;5.56;60.18;99518.94;4303115;33;32875;-96
2021/04/27 00:08:22;;;;;;;15.65;7.90;;;;;;;5.72;60.11;99512.78;4291845;33;32864;-86
2021/04/27 00:10:54;;;;;;;13.10;8.20;;;;;;;5.83;59.55;99513.31;4291735;33;34535;-86
2021/04/27 00:13:27;;;;;;;13.13;8.07;;;;;;;5.81;59.74;99512.66;4303509;33;34769;-95
2021/04/27 00:15:59;;;;;;;11.80;7.55;;;;;;;5.70;60.32;99502.22;4290865;33;34644;-94
2021/04/27 00:18:31;;;;;;;15.05;8.38;;;;;;;5.64;60.62;99497.50;4302987;33;34503;-87
2021/04/27 00:21:03;;;;;;;11.93;8.13;;;;;;;5.52;60.59;99496.13;4302474;33;33976;-93
2021/04/27 00:23:36;;;;;;;12.40;8.52;;;;;;;5.50;60.34;99490.09;4309905;33;34724;-88
2021/04/27 00:26:08;;;;;;;11.52;7.15;;;;;;;5.18;61.60;99488.91;4288342;33;33909;-93
2021/04/27 00:28:41;;;;;;;11.73;7.97;;;;;;;5.70;59.63;99488.81;4289188;33;35044;-94
2021/04/27 00:31:14;;;;;;;14.27;8.43;;;;;;;5.51;60.07;99495.28;4309464;33;33154;-87
2021/04/27 00:33:47;;;;;;;13.85;8.55;;;;;;;5.33;60.45;99486.47;4302809;33;33572;-93
2021/04/27 00:36:19;;;;;;;14.07;7.70;;;;;;;5.47;59.85;99481.34;4279025;33;33547;-86
2021/04/27 00:38:52;;;;;;;13.05;8.95;;;;;;;5.17;60.86;99482.72;4303915;33;33930;-94
2021/04/27 00:41:25;;;;;;;11.63;8.52;;;;;;;5.40;60.32;99477.63;4313059;33;33780;-93
2021/04/27 00:44:00;;;;;;;15.60;8.07;;;;;;;5.57;59.77;99477.69;4290873;33;33613;-87
2021/04/27 00:46:32;;;;;;;12.05;8.73;;;;;;;5.11;61.07;99478.00;4302750;33;33208;-94
2021/04/27 00:49:05;;;;;;;13.82;8.70;;;;;;;5.32;60.15;99469.56;4290231;33;33795;-93
2021/04/27 00:51:37;;;;;;;12.95;8.95;;;;;;;5.35;59.99;99466.56;4291490;33;34758;-93
2021/04/27 00:54:11;;;;;;;13.65;8.70;;;;;;;5.28;59.66;99463.69;4290850;33;33511;-87
2021/04/27 00:56:43;;;;;;;12.50;8.07;;;;;;;4.94;60.81;99463.66;4303665;33;33159;-86
2021/04/27 00:59:15;;;;;;;14.93;8.70;;;;;;;5.07;60.09;99455.19;4302692;33;33672;-88
2021/04/27 01:01:48;;;;;;;13.62;8.07;;;;;;;5.03;60.00;99460.03;4301506;33;33930;-94
2021/04/27 01:04:21;;;;;;;15.23;8.52;;;;;;;4.78;60.86;99456.34;4302510;33;34095;-87
2021/04/27 01:06:53;;;;;;;12.73;8.60;;;;;;;5.08;59.82;99459.56;4303783;33;33045;-86
2021/04/27 01:09:30;;;;;;;16.02;8.90;;;;;;;4.81;60.58;99455.22;4304307;33;33647;-94
2021/04/27 01:12:28;;;;;;;11.18;6.93;;;;;;;4.35;62.52;99453.50;4290457;33;33773;-95
2021/04/27 01:15:21;;;;;;;12.75;9.07;;;;;;;4.85;61.24;99456.56;4323710;33;33684;-96
2021/04/27 01:18:01;;;;;;;13.90;8.98;;;;;;;4.65;62.08;99461.28;4314112;33;35166;-86
2021/04/27 01:20:42;;;;;;;18.48;9.18;;;;;;;4.78;62.06;99451.00;4330993;33;33867;-86
2021/04/27 01:23:23;;;;;;;15.02;8.50;;;;;;;4.73;62.47;99448.81;4305692;33;33645;-87
2021/04/27 01:26:14;;;;;;;19.15;8.98;;;;;;;4.87;62.14;99446.53;4318249;33;33451;-87
2021/04/27 01:28:48;;;;;;;15.07;8.93;;;;;;;4.78;62.41;99451.00;4293498;33;34904;-96
2021/04/27 01:31:22;;;;;;;14.57;8.75;;;;;;;4.58;63.33;99450.34;4293849;33;33443;-86
2021/04/27 01:33:55;;;;;;;11.93;8.75;;;;;;;4.93;62.26;99445.91;4318110;33;35177;-85
2021/04/27 01:36:28;;;;;;;19.12;8.80;;;;;;;4.92;62.67;99438.88;4294458;33;33377;-87
2021/04/27 01:39:01;;;;;;;10.65;7.97;;;;;;;5.03;62.09;99441.28;4316694;33;33374;-96
2021/04/27 01:41:35;;;;;;;15.40;8.65;;;;;;;5.01;62.13;99432.56;4304539;33;33727;-87
2021/04/27 01:44:09;;;;;;;13.65;8.68;;;;;;;5.36;60.85;99433.41;4317990;33;33940;-96
2021/04/27 01:46:43;;;;;;;14.15;9.27;;;;;;;5.29;61.05;99429.69;4314540;33;34433;-96
2021/04/27 01:49:17;;;;;;;12.45;8.48;;;;;;;5.57;60.35;99438.34;4294063;33;33123;-87
2021/04/27 01:51:53;;;;;;;12.43;8.40;;;;;;;5.45;60.42;99432.44;4317586;33;33616;-87
2021/04/27 01:54:29;;;;;;;12.35;8.57;;;;;;;5.44;60.43;99433.41;4325856;33;34891;-96
2021/04/27 01:57:03;;;;;;;13.70;8.18;;;;;;;5.38;60.41;99431.38;4301787;33;33699;-87
2021/04/27 01:59:35;;;;;;;14.70;8.05;;;;;;;5.23;60.94;99425.81;4301985;33;33417;-87
2021/04/27 02:02:09;;;;;;;11.73;8.52;;;;;;;5.15;61.09;99424.91;4326356;33;33793;-96
2021/04/27 02:04:47;;;;;;;17.25;9.20;;;;;;;4.93;61.68;99421.81;4303478;33;35110;-87
2021/04/27 02:07:25;;;;;;;12.90;8.68;;;;;;;5.20;60.78;99418.09;4316167;33;36483;-87
2021/04/27 02:10:01;;;;;;;13.52;8.82;;;;;;;4.69;61.99;99415.28;4319115;33;33320;-87
2021/04/27 02:12:46;;;;;;;13.55;8.10;;;;;;;5.04;60.85;99413.47;4319996;33;33832;-87
2021/04/27 02:15:22;;;;;;;14.98;8.30;;;;;;;4.72;61.69;99414.16;4306774;33;33815;-87
2021/04/27 02:17:58;;;;;;;12.88;7.80;;;;;;;4.90;61.06;99408.72;4306836;33;34982;-87
2021/04/27 02:20:31;;;;;;;13.80;7.93;;;;;;;4.58;61.54;99412.88;4306712;33;34299;-87
2021/04/27 02:23:09;;;;;;;13.25;8.13;;;;;;;4.68;61.13;99418.12;4307174;33;33704;-95
2021/04/27 02:26:13;;;;;;;11.65;8.35;;;;;;;4.77;60.71;99415.38;4313709;27;36224;-95
2021/04/27 02:29:04;;;;;;;15.55;9.65;;;;;;;4.32;62.27;99418.22;4323433;33;32776;-87
2021/04/27 02:31:37;;;;;;;13.40;8.73;;;;;;;4.11;63.17;99415.84;4318370;33;34193;-87
2021/04/27 02:34:11;;;;;;;16.10;9.30;;;;;;;4.39;62.23;99406.72;4328209;33;34309;-87
2021/04/27 02:36:43;;;;;;;13.27;8.75;;;;;;;4.36;61.85;99415.06;4329945;33;33758;-95
2021/04/27 02:39:46;;;;;;;15.25;8.43;;;;;;;3.86;63.44;99408.47;4214212;33;36109;-88
2021/04/27 02:42:19;;;;;;;9.77;7.18;;;;;;;3.95;63.41;99411.19;4329682;33;33466;-87
2021/04/27 02:44:57;;;;;;;16.80;8.00;;;;;;;3.83;63.52;99402.56;4329006;33;33754;-87
2021/04/27 02:47:30;;;;;;;14.15;9.02;;;;;;;3.87;63.29;99403.94;4329813;33;33636;-87
2021/04/27 02:50:03;;;;;;;11.95;8.73;;;;;;;3.83;63.27;99398.06;4329569;33;33870;-87
2021/04/27 02:52:36;;;;;;;13.88;8.90;;;;;;;3.95;62.93;99397.81;4329512;33;33957;-87
2021/04/27 02:55:12;;;;;;;12.07;8.45;;;;;;;3.67;64.14;99406.75;4328763;33;34840;-87
2021/04/27 02:57:44;;;;;;;16.12;9.55;;;;;;;3.69;63.72;99402.09;4328972;33;33994;-95
2021/04/27 03:00:50;;;;;;;13.98;8.38;;;;;;;3.30;65.18;99407.66;4205726;27;36716;-86
2021/04/27 03:03:23;;;;;;;13.27;8.32;;;;;;;3.63;63.85;99410.72;4332477;33;33331;-87
2021/04/27 03:05:55;;;;;;;14.38;8.93;;;;;;;3.97;62.78;99393.19;4329628;33;33937;-88
2021/04/27 03:08:29;;;;;;;13.48;8.10;;;;;;;3.62;63.91;99400.16;4329982;33;34866;-95
2021/04/27 03:11:39;;;;;;;17.83;8.38;;;;;;;3.72;63.44;99401.78;3878544;33;35188;-87
2021/04/27 03:14:12;;;;;;;12.93;8.98;;;;;;;3.93;62.29;99397.97;4303210;33;33469;-87
2021/04/27 03:16:46;;;;;;;12.15;7.50;;;;;;;3.74;nan;99404.31;4292327;33;34610;-95
2021/04/27 03:19:33;;;;;;;11.40;8.25;;;;;;;3.59;63.42;99405.81;4277120;33;35466;-87
2021/04/27 03:22:06;;;;;;;15.07;8.68;;;;;;;3.42;63.93;99408.31;4278048;33;34389;-94
2021/04/27 03:24:51;;;;;;;17.85;10.15;;;;;;;3.73;62.67;99399.97;4286315;33;35822;-87
2021/04/27 03:27:24;;;;;;;21.30;11.10;;;;;;;3.54;63.25;99403.59;4289466;33;34851;-87
2021/04/27 03:29:58;;;;;;;21.52;9.93;;;;;;;3.10;64.47;99408.75;4277801;33;34088;-96
2021/04/27 03:32:49;;;;;;;14.23;8.70;;;;;;;3.08;64.48;99410.72;4293980;33;32611;-96
2021/04/27 03:35:23;;;;;;;14.55;9.35;;;;;;;3.15;64.31;99415.34;4314708;33;33538;-86
2021/04/27 03:37:59;;;;;;;18.87;9.45;;;;;;;3.07;64.54;99406.37;4315686;33;34811;-96
2021/04/27 03:40:45;;;;;;;17.33;9.23;;;;;;;3.38;63.70;99414.09;4329510;33;33301;-96
2021/04/27 03:43:37;;;;;;;15.02;9.57;;;;;;;3.29;64.06;99427.38;4304163;33;33989;-87
2021/04/27 03:46:09;;;;;;;15.13;8.13;;;;;;;3.22;64.05;99417.41;4295307;33;33376;-86
2021/04/27 03:48:42;;;;;;;13.70;9.02;;;;;;;3.61;62.65;99415.38;4307775;33;33939;-86
2021/04/27 03:51:17;;;;;;;10.95;8.00;;;;;;;3.48;62.85;99415.72;4305832;33;33868;-96
2021/04/27 03:54:06;;;;;;;13.65;8.05;;;;;;;3.57;62.48;99407.81;4302970;33;33392;-87
2021/04/27 03:56:38;;;;;;;11.57;7.55;;;;;;;3.38;62.96;99422.13;4305417;33;33408;-96
2021/04/27 03:59:36;;;;;;;14.85;9.02;;;;;;;3.29;63.83;99415.84;4307014;33;33074;-96
2021/04/27 04:02:33;;;;;;;11.48;8.18;;;;;;;3.24;64.05;99432.31;4265489;33;35721;-96
2021/04/27 04:05:23;;;;;;;15.70;9.23;;;;;;;3.42;63.29;99429.69;4293105;33;36454;-86
2021/04/27 04:08:00;;;;;;;12.43;8.35;;;;;;;3.34;63.63;99430.44;4306077;33;34322;-96
2021/04/27 04:11:07;;;;;;;12.07;7.75;;;;;;;3.36;63.69;99435.63;4314470;27;34768;-86
2021/04/27 04:13:40;;;;;;;13.77;9.15;;;;;;;3.26;64.12;99437.50;4303908;33;34073;-96
2021/04/27 04:16:28;;;;;;;16.40;9.02;;;;;;;3.42;63.68;99432.34;4279249;33;34541;-96
2021/04/27 04:19:38;;;;;;;15.73;9.77;;;;;;;3.51;63.35;99434.12;4295612;33;34026;-96
2021/04/27 04:22:55;;;;;;;17.70;8.13;;;;;;;3.40;63.78;99438.84;4116087;33;36585;-96
2021/04/27 04:25:34;;;;;;;17.83;9.30;;;;;;;3.61;63.14;99447.44;4288022;33;33507;-96
2021/04/27 04:28:24;;;;;;;16.90;8.85;;;;;;;3.63;63.46;99450.81;4289435;33;34563;-86
2021/04/27 04:30:57;;;;;;;13.65;8.20;;;;;;;3.88;62.69;99448.41;4293314;33;34120;-86
2021/04/27 04:33:32;;;;;;;12.02;8.20;;;;;;;3.68;63.53;99442.34;4304275;33;35789;-86
2021/04/27 04:36:21;;;;;;;11.60;8.02;;;;;;;3.94;62.94;99447.81;4364931;27;32901;-96
2021/04/27 04:39:47;;;;;;;13.25;8.43;;;;;;;3.95;63.14;99444.16;4042706;27;34659;-86
2021/04/27 04:42:22;;;;;;;13.10;8.40;;;;;;;4.18;62.82;99454.38;4321714;33;33439;-86
2021/04/27 04:45:05;;;;;;;;;;;;;;;4.68;61.17;99447.59;4321178;33;33060;-86
2021/04/27 04:48:02;;;;;;;17.65;8.93;;;;;;;4.52;61.94;99456.31;4300951;33;35973;-86
2021/04/27 04:51:03;;;;;;;10.68;8.18;;;;;;;4.57;62.38;99459.37;4345944;27;34251;-89
2021/04/27 04:56:26;;;;;;;11.70;8.23;;;;;;;5.05;61.31;99468.75;4366008;27;34224;-86
2021/04/27 04:59:11;;;;;;;15.40;9.57;;;;;;;5.23;61.70;99468.66;4659804;27;34719;31
2021/04/27 05:02:17;;;;;;;12.37;9.27;;;;;;;5.38;61.72;99466.22;4303157;33;33929;-96
2021/04/27 05:05:17;;;;;;;14.43;9.10;;;;;;;5.22;62.58;99472.34;4312843;33;32771;-87
2021/04/27 05:08:02;;;;;;;26.25;14.80;;;;;;;5.50;62.05;99477.50;4303518;33;34979;-87
2021/04/27 05:10:45;;;;;;;19.33;9.65;;;;;;;5.84;61.32;99479.31;4304089;33;32860;-87
2021/04/27 05:13:42;;;;;;;16.77;11.38;;;;;;;6.08;61.27;99477.72;4127436;33;36859;-87
2021/04/27 05:16:17;;;;;;;14.40;8.43;;;;;;;6.26;61.32;99491.00;4301857;33;33245;-92
2021/04/27 05:18:53;;;;;;;15.45;10.07;;;;;;;6.25;61.43;99486.66;4313066;33;35009;-87
2021/04/27 05:21:29;;;;;;;15.98;9.45;;;;;;;6.35;61.39;99479.28;4302966;33;34625;-96
2021/04/27 05:24:30;;;;;;;17.58;9.70;;;;;;;6.65;61.23;99482.31;4332769;33;33843;-96
2021/04/27 05:27:22;;;;;;;14.63;8.00;;;;;;;6.86;60.65;99482.63;4314224;33;34299;-95
2021/04/27 05:29:58;;;;;;;17.42;7.82;;;;;;;6.73;62.18;99474.22;4310026;33;32423;-96
2021/04/27 05:32:30;;;;;;;15.90;8.30;;;;;;;7.22;60.98;99473.31;4310480;33;33633;-96
2021/04/27 05:35:04;;;;;;;12.23;9.30;;;;;;;7.31;60.71;99463.38;4287784;33;33738;-96
2021/04/27 05:37:51;;;;;;;13.13;8.10;;;;;;;7.68;60.20;99467.25;4300218;33;32087;-96
2021/04/27 05:40:24;;;;;;;26.17;13.80;;;;;;;7.98;59.73;99465.59;4288919;33;35326;-87
2021/04/27 05:42:57;;;;;;;17.00;11.05;;;;;;;8.43;59.34;99469.31;4313511;33;33920;-87
2021/04/27 05:45:29;;;;;;;17.42;10.27;;;;;;;8.68;59.18;99469.13;4322739;33;33423;-96
2021/04/27 05:48:24;;;;;;;29.55;14.43;;;;;;;8.97;58.65;99476.47;4281168;33;34370;-96
2021/04/27 05:50:57;;;;;;;29.45;16.05;;;;;;;9.29;57.78;99474.44;4269189;33;34516;-96
2021/04/27 05:53:45;;;;;;;26.87;15.10;;;;;;;9.52;57.40;99470.81;4262619;33;33584;-96
2021/04/27 05:56:18;;;;;;;49.80;22.87;;;;;;;9.65;57.29;99475.53;4261204;33;33890;-86
2021/04/27 05:58:51;;;;;;;42.58;21.00;;;;;;;9.88;55.58;99480.84;4273395;33;33252;-96
2021/04/27 06:01:23;;;;;;;39.40;20.67;;;;;;;10.06;55.78;99478.53;4256380;33;34143;-87
2021/04/27 06:03:55;;;;;;;22.23;10.40;;;;;;;10.33;53.22;99489.66;4256345;33;33730;-87
2021/04/27 06:06:28;;;;;;;27.20;11.55;;;;;;;10.70;51.30;99481.47;4274012;33;34448;-96
2021/04/27 06:09:04;;;;;;;18.10;11.00;;;;;;;10.81;50.70;99478.25;4269999;33;33890;-96
2021/04/27 06:11:37;;;;;;;19.90;9.45;;;;;;;11.12;48.49;99483.28;4246360;33;34338;-96
2021/04/27 06:14:23;;;;;;;14.77;9.10;;;;;;;11.18;46.38;99470.00;4314773;33;34978;-87
2021/04/27 06:16:56;;;;;;;15.82;9.02;;;;;;;11.71;45.63;99473.00;4322368;33;34919;-87
2021/04/27 06:19:30;;;;;;;15.65;9.80;;;;;;;11.43;45.78;99470.34;4326137;33;32992;-89
2021/04/27 06:22:02;;;;;;;16.23;10.15;;;;;;;11.65;46.77;99461.09;4321245;33;35155;-88
2021/04/27 06:24:38;;;;;;;16.12;8.45;;;;;;;11.89;45.44;99463.50;4299611;33;34703;-91
2021/04/27 06:27:13;;;;;;;16.23;10.52;;;;;;;11.52;43.71;99461.03;4312111;33;33409;-90
2021/04/27 06:30:11;;;;;;;19.85;11.73;;;;;;;11.65;44.88;99471.09;4320199;33;33180;-96
2021/04/27 06:33:47;;;;;;;20.73;9.48;;;;;;;12.44;44.17;99461.59;4405233;27;32695;31
2021/04/27 06:36:55;;;;;;;19.92;9.57;;;;;;;11.97;43.18;99463.34;4473192;27;32605;31
2021/04/27 06:40:01;;;;;;;12.20;8.20;;;;;;;11.92;43.72;99466.63;4277188;33;33418;-95
2021/04/27 06:46:44;;;;;;;11.15;7.70;;;;;;;11.86;43.53;99458.50;4440395;27;20100;-94
2021/04/27 06:49:42;;;;;;;14.57;8.20;;;;;;;11.73;41.74;99464.69;4315045;27;33999;-91
2021/04/27 06:52:15;;;;;;;12.37;8.63;;;;;;;12.40;42.73;99459.50;4253903;33;31554;-90
2021/04/27 06:55:58;;;;;;;;;;;;;;;;;;;;;
2021/04/27 07:22:20;;;;;;;15.90;9.65;;;;;;;12.98;39.56;99469.72;4539473;28;32283;-96
2021/04/27 07:26:04;;;;;;;13.20;8.65;;;;;;;12.69;40.72;99477.22;4274446;33;33767;-95
2021/04/27 07:28:43;;;;;;;17.75;8.70;;;;;;;12.60;40.33;99473.06;4267652;33;34586;-95
2021/04/27 07:32:12;;;;;;;17.90;9.52;;;;;;;12.80;40.30;99473.06;4249258;33;34646;-94
2021/04/27 07:34:58;;;;;;;17.17;8.95;;;;;;;13.09;40.53;99471.81;4253498;33;34094;-89
2021/04/27 07:37:36;;;;;;;15.32;9.02;;;;;;;13.10;39.92;99476.19;4262760;33;34024;-90
2021/04/27 07:40:39;;;;;;;15.52;8.32;;;;;;;13.37;40.13;99478.91;4261389;33;33338;-94
2021/04/27 07:43:31;;;;;;;17.30;8.90;;;;;;;12.98;39.23;99477.84;4261542;33;33019;-93
2021/04/27 07:46:39;;;;;;;14.85;9.18;;;;;;;13.77;39.18;99484.19;4254728;33;35443;-93
2021/04/27 07:49:19;;;;;;;14.90;9.60;;;;;;;13.72;38.58;99484.00;4257318;33;33893;-93
2021/04/27 07:55:42;;;;;;;14.98;9.15;;;;;;;14.07;39.11;99476.34;4256297;33;33386;-91
2021/04/27 07:58:20;;;;;;;21.87;11.27;;;;;;;14.03;37.65;99477.00;4265747;33;33936;-89
2021/04/27 08:01:02;;;;;;;15.52;9.43;;;;;;;14.48;37.66;99479.66;4255815;33;33897;-94
2021/04/27 08:03:51;;;;;;;25.50;11.68;;;;;;;14.88;37.97;99473.09;4269228;33;32861;-92
2021/04/27 08:06:32;;;;;;;14.02;9.07;;;;;;;14.75;37.60;99474.06;4272333;33;34465;-91
2021/04/27 08:09:14;;;;;;;21.20;9.23;;;;;;;14.21;36.67;99479.81;4283635;33;34804;-92
2021/04/27 08:12:04;;;;;;;16.83;8.65;;;;;;;14.85;35.67;99479.84;4272534;33;33037;-89
2021/04/27 08:14:43;;;;;;;16.58;8.30;;;;;;;14.59;37.06;99481.66;4272368;33;32926;-91
2021/04/27 08:17:33;;;;;;;16.10;9.18;;;;;;;15.39;36.20;99476.63;4265284;33;34585;-91
2021/04/27 08:20:36;;;;;;;17.75;8.55;;;;;;;15.38;36.45;99478.50;4277589;33;33512;-91
2021/04/27 08:23:23;;;;;;;17.62;7.97;;;;;;;15.57;36.27;99471.19;4278498;33;33439;-90
2021/04/27 08:26:00;;;;;;;16.02;7.35;;;;;;;15.62;34.93;99471.34;4276467;33;33086;-88
2021/04/27 08:28:41;;;;;;;10.85;6.78;;;;;;;15.87;33.58;99478.62;4267463;33;34563;-91
2021/04/27 08:31:29;;;;;;;14.02;7.37;;;;;;;16.40;33.68;99479.81;4267392;33;34466;-91
2021/04/27 08:34:19;;;;;;;13.15;7.53;;;;;;;15.94;32.63;99482.09;4256660;33;33292;-92
2021/04/27 08:36:58;;;;;;;12.57;7.32;;;;;;;16.22;34.13;99488.88;4271979;33;34449;-91
2021/04/27 08:39:50;;;;;;;14.30;7.78;;;;;;;15.84;33.38;99487.28;4277656;33;33735;-90
2021/04/27 08:42:39;;;;;;;14.77;9.98;;;;;;;15.52;32.55;99481.91;4265869;33;34708;-90
2021/04/27 08:45:18;;;;;;;24.40;11.77;;;;;;;15.31;32.83;99486.75;4267507;33;35159;-93
2021/04/27 08:47:59;;;;;;;18.17;11.95;;;;;;;15.58;33.34;99477.47;4266550;33;32757;-90
2021/04/27 08:50:41;;;;;;;15.60;8.80;;;;;;;15.89;34.67;99480.06;4256326;33;32620;-90
2021/04/27 08:53:32;;;;;;;12.95;7.95;;;;;;;16.31;33.14;99473.84;4268400;33;34938;-90
2021/04/27 08:56:23;;;;;;;19.37;9.52;;;;;;;16.49;32.45;99477.59;4268736;33;34094;-93
2021/04/27 08:59:13;;;;;;;14.50;7.78;;;;;;;17.47;32.21;99478.06;4266500;33;33220;-91
2021/04/27 09:01:51;;;;;;;10.63;7.25;;;;;;;17.52;32.93;99478.19;4239198;33;33595;-92
2021/04/27 09:04:53;;;;;;;13.70;7.72;;;;;;;17.79;31.83;99467.53;4256061;33;33683;-90
2021/04/27 09:08:07;;;;;;;11.60;8.00;;;;;;;17.29;31.02;99470.84;4273958;33;33291;-91
2021/04/27 09:10:56;;;;;;;13.95;7.18;;;;;;;17.03;31.60;99464.75;4270629;33;33832;-94
2021/04/27 09:13:45;;;;;;;12.45;7.35;;;;;;;17.54;29.66;99467.00;4274489;33;34249;-90
2021/04/27 09:16:46;;;;;;;15.15;8.18;;;;;;;17.51;29.08;99464.75;4258195;33;34917;-90
2021/04/27 09:19:30;;;;;;;13.65;7.40;;;;;;;18.08;30.67;99461.31;4271631;33;33163;-93
2021/04/27 09:22:20;;;;;;;12.90;7.37;;;;;;;17.74;29.15;99461.13;4276147;33;33142;-90
2021/04/27 09:25:03;;;;;;;11.50;7.70;;;;;;;17.91;29.25;99458.53;4277759;33;33954;-92
2021/04/27 09:27:48;;;;;;;13.25;7.70;;;;;;;18.24;29.23;99459.72;4270460;33;34852;-94
2021/04/27 09:30:27;;;;;;;14.82;8.35;;;;;;;18.17;31.28;99457.97;4245610;33;33825;-94
2021/04/27 09:33:06;;;;;;;10.98;7.72;;;;;;;18.65;30.11;99461.28;4270163;33;33738;-95
2021/04/27 09:35:44;;;;;;;14.38;7.10;;;;;;;18.37;30.35;99448.47;4277645;33;34887;-92
2021/04/27 09:39:08;;;;;;;12.48;6.93;;;;;;;18.48;28.84;99450.28;4462375;27;35382;31
2021/04/27 09:42:34;;;;;;;13.80;8.02;;;;;;;17.58;28.21;99440.88;4409578;28;33149;-93
2021/04/27 09:49:12;;;;;;;12.35;7.62;;;;;;;18.79;28.34;99437.13;1097984;27;20353;-97
2021/04/27 09:55:55;;;;;;;13.82;7.50;;;;;;;18.60;29.20;99431.06;4382909;27;20119;-96
2021/04/27 10:02:51;;;;;;;11.93;7.07;;;;;;;19.36;26.86;99432.53;4478468;27;20161;-96
2021/04/27 10:05:56;;;;;;;13.52;8.45;;;;;;;19.39;26.82;99421.87;4438336;27;33126;-90
2021/04/27 10:09:06;;;;;;;10.82;6.85;;;;;;;20.01;27.31;99428.16;4289948;33;35360;-96
2021/04/27 10:12:27;;;;;;;8.93;6.05;;;;;;;20.61;25.11;99423.56;4117438;33;33253;-92
2021/04/27 10:15:04;;;;;;;13.90;7.00;;;;;;;21.18;24.69;99415.72;4305112;33;33996;-96
2021/04/27 10:17:53;;;;;;;9.00;6.22;;;;;;;21.15;23.55;99413.50;4287599;33;33903;-96
2021/04/27 10:21:15;;;;;;;13.40;7.15;;;;;;;21.12;25.18;99408.56;4353025;27;34258;31
2021/04/27 10:24:03;;;;;;;8.50;5.93;;;;;;;21.82;25.20;99402.88;4272555;33;33436;-95
2021/04/27 10:27:14;;;;;;;12.43;5.80;;;;;;;21.95;22.90;99399.59;4320473;27;33292;31
2021/04/27 10:29:59;;;;;;;9.60;6.37;;;;;;;21.59;22.76;99396.75;4333656;27;33662;-92
2021/04/27 10:32:38;;;;;;;9.30;6.50;;;;;;;22.15;23.88;99393.31;4297005;33;33070;-96
2021/04/27 10:36:11;;;;;;;9.38;6.57;;;;;;;22.29;22.17;99390.03;4904560;27;33329;31
2021/04/27 10:43:27;;;;;;;10.68;5.00;;;;;;;22.07;22.70;99385.59;4272919;27;20120;-96
2021/04/27 10:46:34;;;;;;;8.55;5.78;;;;;;;22.50;20.79;99390.91;4712614;27;20285;31
2021/04/27 10:50:05;;;;;;;7.90;5.95;;;;;;;21.89;20.80;99378.69;4453275;28;20786;-96
2021/04/27 11:04:29;;;;;;;9.18;5.72;;;;;;;22.80;21.69;99375.47;4194734;33;32470;-93
2021/04/27 11:07:33;;;;;;;10.30;5.75;;;;;;;22.66;20.57;99367.78;4231271;33;33157;-92
2021/04/27 11:10:13;;;;;;;11.23;5.95;;;;;;;23.51;20.67;99363.47;4231648;33;33727;-93
2021/04/27 11:13:05;;;;;;;15.55;6.47;;;;;;;23.51;20.32;99357.12;4256121;33;35300;-91
2021/04/27 11:15:45;;;;;;;8.38;5.62;;;;;;;22.80;21.41;99367.22;4247311;33;32715;-91
2021/04/27 11:18:19;;;;;;;8.65;6.15;;;;;;;22.02;22.56;99364.41;4245801;33;34127;-91
2021/04/27 11:21:12;;;;;;;7.70;5.57;;;;;;;22.23;21.50;99361.69;4244198;33;33336;-91
2021/04/27 11:23:51;;;;;;;15.35;6.68;;;;;;;21.61;23.09;99360.72;4258510;33;35522;-90
2021/04/27 11:26:37;;;;;;;7.03;5.18;;;;;;;21.49;22.49;99369.16;4259689;33;33113;-95
2021/04/27 11:29:37;;;;;;;10.90;5.10;;;;;;;20.73;23.86;99367.66;4257202;33;35114;-95
2021/04/27 11:33:12;;;;;;;9.32;4.35;;;;;;;21.25;23.39;99353.13;4254112;33;34476;-96
2021/04/27 11:36:39;;;;;;;6.82;5.00;;;;;;;21.69;22.67;99361.03;4148318;34;20124;-95
2021/04/27 11:39:18;;;;;;;6.80;4.78;;;;;;;20.46;22.34;99368.50;4152526;34;33584;-93
2021/04/27 11:41:53;;;;;;;8.07;5.62;;;;;;;20.75;23.63;99354.50;4130916;34;33953;-93
2021/04/27 11:47:45;;;;;;;8.32;4.78;;;;;;;22.82;21.39;99349.31;4201199;34;33264;-92
2021/04/27 11:50:29;;;;;;;11.50;5.90;;;;;;;22.73;20.33;99349.03;4207861;34;32851;-92
2021/04/27 11:53:31;;;;;;;9.10;5.62;;;;;;;22.58;21.92;99340.81;4225203;33;33654;-93
2021/04/27 11:56:13;;;;;;;11.48;5.47;;;;;;;21.97;22.39;99347.88;4298689;33;32744;-93
2021/04/27 11:58:55;;;;;;;9.38;4.93;;;;;;;21.66;22.97;99342.34;4289428;33;34092;-94
2021/04/27 12:01:28;;;;;;;10.40;5.05;;;;;;;20.50;22.66;99336.69;4286442;33;34060;-92
2021/04/27 12:04:24;;;;;;;12.48;4.95;;;;;;;21.13;22.39;99330.53;4288010;33;33919;-95
2021/04/27 12:07:06;;;;;;;8.13;5.20;;;;;;;21.62;23.58;99343.16;4290330;33;33289;-88
2021/04/27 12:09:43;;;;;;;7.45;4.72;;;;;;;22.20;23.24;99340.22;4289444;33;34592;-92
2021/04/27 12:12:24;;;;;;;12.50;5.43;;;;;;;22.92;21.82;99330.00;4300466;33;32969;-94
2021/04/27 12:15:04;;;;;;;7.95;4.90;;;;;;;21.94;21.91;99331.09;4288410;33;34800;-96
2021/04/27 12:17:38;;;;;;;12.32;6.25;;;;;;;23.28;23.04;99326.34;4282653;33;33301;-96
2021/04/27 12:20:26;;;;;;;9.77;5.05;;;;;;;23.41;20.41;99323.00;4303444;33;35125;-96
2021/04/27 12:23:32;;;;;;;7.43;4.47;;;;;;;24.45;21.60;99315.69;4293449;33;33806;-94
2021/04/27 12:26:08;;;;;;;7.32;5.05;;;;;;;24.49;19.43;99321.44;4312414;33;33714;-95
2021/04/27 12:28:42;;;;;;;9.63;5.68;;;;;;;23.96;18.89;99316.63;4313081;33;33838;-93
2021/04/27 12:31:32;;;;;;;6.45;4.82;;;;;;;24.10;19.34;99314.03;4327318;27;33284;31
2021/04/27 12:35:04;;;;;;;7.28;4.87;;;;;;;24.22;18.74;99305.38;4459808;27;20104;31
2021/04/27 12:41:10;;;;;;;8.65;4.72;;;;;;;24.24;19.22;99309.50;4268016;28;34659;-85
2021/04/27 12:44:28;;;;;;;7.95;5.10;;;;;;;24.20;21.04;99302.91;4317245;33;33637;-92
2021/04/27 12:47:38;;;;;;;;;;;;;;;;;;;;;
2021/04/27 12:51:15;;;;;;;7.45;4.65;;;;;;;23.38;18.99;99306.16;4355511;27;35132;-84
2021/04/27 12:53:52;;;;;;;8.45;5.30;;;;;;;24.61;19.51;99293.47;4321927;27;33531;-84
2021/04/27 12:56:32;;;;;;;7.75;4.72;;;;;;;25.02;19.47;99287.50;4315180;33;34776;-93
2021/04/27 12:59:19;;;;;;;9.60;4.95;;;;;;;25.09;19.98;99292.66;4320196;33;33889;-93
2021/04/27 13:02:17;;;;;;;7.68;4.82;;;;;;;25.33;18.36;99287.16;4309261;33;34957;-84
2021/04/27 13:04:57;;;;;;;10.13;4.45;;;;;;;24.75;18.19;99279.81;4328923;33;33773;-91
2021/04/27 13:07:36;;;;;;;6.60;5.20;;;;;;;24.14;19.49;99288.31;4329306;33;33215;-92
2021/04/27 13:10:33;;;;;;;6.82;3.78;;;;;;;23.85;18.95;99290.16;4318636;33;33431;-94
2021/04/27 13:16:54;;;;;;;7.70;4.30;;;;;;;24.24;18.18;99289.38;4322930;33;33361;-93
2021/04/27 13:19:50;;;;;;;10.25;4.65;;;;;;;25.17;18.36;99284.56;4318197;33;33446;-93
2021/04/27 13:22:48;;;;;;;7.35;4.47;;;;;;;25.48;17.60;99281.44;4292827;33;33674;-96
2021/04/27 13:25:33;;;;;;;8.15;4.53;;;;;;;25.79;16.76;99274.63;4311133;33;35175;-92
2021/04/27 13:28:20;;;;;;;9.80;4.97;;;;;;;24.12;18.87;99275.94;4290363;33;35275;-94
2021/04/27 13:31:05;;;;;;;8.57;4.40;;;;;;;23.89;18.40;99274.72;4285358;33;35968;-92
2021/04/27 13:33:43;;;;;;;12.82;5.45;;;;;;;23.84;18.93;99274.75;4315057;33;33421;-92
2021/04/27 13:36:22;;;;;;;7.95;3.78;;;;;;;23.98;18.70;99273.00;4304437;33;33487;-92
2021/04/27 13:38:58;;;;;;;10.88;4.40;;;;;;;24.04;18.23;99266.34;4304871;33;33326;-91
2021/04/27 13:41:42;;;;;;;6.25;3.65;;;;;;;23.76;18.15;99271.47;4315450;33;33918;-92
2021/04/27 13:44:24;;;;;;;7.25;4.28;;;;;;;23.37;19.03;99272.28;4315873;33;33325;-92
2021/04/27 13:47:01;;;;;;;8.63;3.92;;;;;;;24.21;18.90;99265.12;4280706;33;34519;-90
2021/04/27 13:49:37;;;;;;;6.45;3.70;;;;;;;25.08;16.98;99264.22;4315260;33;35053;-91
2021/04/27 13:52:15;;;;;;;5.68;3.90;;;;;;;25.09;17.23;99263.09;4315161;33;34298;-94
2021/04/27 13:54:53;;;;;;;7.50;3.70;;;;;;;26.90;14.69;99264.72;4302392;33;34196;-91
2021/04/27 13:57:25;;;;;;;13.15;4.50;;;;;;;27.24;14.60;99246.81;4303379;33;33529;-91
2021/04/27 14:00:03;;;;;;;7.43;3.80;;;;;;;29.08;15.37;99250.06;4317415;33;34023;-92
2021/04/27 14:02:38;;;;;;;9.50;4.10;;;;;;;27.50;14.37;99251.00;4299727;33;34983;-92
2021/04/27 14:05:12;;;;;;;10.05;3.50;;;;;;;27.91;13.83;99242.53;4301017;33;34860;-93
2021/04/27 14:07:45;;;;;;;5.20;3.65;;;;;;;28.06;13.78;99248.91;4314356;33;33851;-92
2021/04/27 14:10:20;;;;;;;6.72;3.17;;;;;;;26.59;12.53;99250.59;4302741;33;33140;-87